Time;durP1;ratioP1;P1;durP2;ratioP2;P2;SDS_P1;SDS_P2;PMS_P1;PMS_P2;Temp;Humidity;BMP_temperature;BMP_pressure;BME280_temperature;BME280_humidity;BME280_pressure;Samples;Min_cycle;Max_cycle;Signal;HPM_P1;HPM_P2
2022/04/18 00:00:13;;;;;;;16.73;6.95;;;;;;;0.49;98.41;142394.34;1753097;81;21039;-52
2022/04/18 00:02:42;;;;;;;14.20;7.08;;;;;;;0.48;98.66;142391.83;1753352;81;21509;-53
2022/04/18 00:05:09;;;;;;;12.68;7.00;;;;;;;0.49;98.70;142394.34;1753121;82;20997;-52
2022/04/18 00:07:36;;;;;;;15.68;8.08;;;;;;;0.52;98.71;142400.56;1753327;81;21040;-52
2022/04/18 00:10:05;;;;;;;21.90;8.98;;;;;;;0.53;98.73;142403.03;1753096;82;21047;-53
2022/04/18 00:12:33;;;;;;;18.90;9.48;;;;;;;0.58;98.85;142416.70;1753153;81;21023;-52
2022/04/18 00:15:02;;;;;;;18.07;9.25;;;;;;;0.64;98.79;142431.66;1753070;81;21035;-52
2022/04/18 00:17:29;;;;;;;21.15;9.23;;;;;;;0.69;98.65;142441.58;1753095;81;21040;-52
2022/04/18 00:19:57;;;;;;;20.92;10.35;;;;;;;0.70;98.54;142444.09;1752963;81;21048;-52
2022/04/18 00:22:25;;;;;;;18.57;9.45;;;;;;;0.67;98.28;142436.64;1753391;81;21494;-53
2022/04/18 00:24:53;;;;;;;17.40;7.58;;;;;;;0.59;98.37;142419.22;1753191;81;21047;-52
2022/04/18 00:27:21;;;;;;;14.28;6.87;;;;;;;0.58;98.58;142416.70;1753059;81;21486;-54
2022/04/18 00:29:47;;;;;;;14.55;5.58;;;;;;;0.56;98.64;142411.77;1753338;81;21106;-53
2022/04/18 00:32:16;;;;;;;12.65;5.28;;;;;;;0.52;98.77;142401.80;1753077;82;21035;-52
2022/04/18 00:34:44;;;;;;;11.65;5.33;;;;;;;0.52;98.87;142400.56;1749924;82;21040;-54
2022/04/18 00:37:11;;;;;;;11.12;5.67;;;;;;;0.55;98.92;142408.02;1747498;81;21599;-52
2022/04/18 00:39:37;;;;;;;9.75;5.03;;;;;;;0.52;98.84;142400.56;1747723;81;21109;-53
2022/04/18 00:42:06;;;;;;;8.55;4.58;;;;;;;0.52;99.04;142400.56;1747487;81;21008;-52
2022/04/18 00:44:32;;;;;;;13.08;4.70;;;;;;;0.54;99.10;142406.78;1747751;81;21072;-52
2022/04/18 00:46:59;;;;;;;10.10;5.58;;;;;;;0.56;99.22;142410.48;1747553;81;21078;-55
2022/04/18 00:49:27;;;;;;;10.05;4.55;;;;;;;0.58;99.21;142415.47;1747553;81;21051;-52
2022/04/18 00:51:56;;;;;;;11.80;5.03;;;;;;;0.57;99.41;142414.23;1747553;81;21538;-52
2022/04/18 00:54:24;;;;;;;18.52;5.83;;;;;;;0.51;99.60;142399.33;1747507;82;21102;-53
2022/04/18 00:56:53;;;;;;;11.00;5.17;;;;;;;0.45;99.75;142384.38;1747464;82;21174;-53
2022/04/18 00:59:21;;;;;;;9.03;5.03;;;;;;;0.45;100.00;142383.16;1747457;81;21102;-53
2022/04/18 01:01:49;;;;;;;12.43;5.90;;;;;;;0.46;100.00;142385.61;1747475;81;21032;-52
2022/04/18 01:04:17;;;;;;;17.27;5.60;;;;;;;0.46;100.00;142386.89;1747511;82;21076;-52
2022/04/18 01:06:46;;;;;;;13.32;5.30;;;;;;;0.46;100.00;142385.61;1747633;81;21072;-52
2022/04/18 01:09:14;;;;;;;20.52;7.75;;;;;;;0.46;100.00;142386.89;1747496;81;21079;-53
2022/04/18 01:11:41;;;;;;;12.93;5.87;;;;;;;0.46;100.00;142386.89;1747815;82;21039;-53
2022/04/18 01:14:27;;;;;;;17.12;6.60;;;;;;;0.45;100.00;142384.38;1747657;81;21035;-52
2022/04/18 01:17:04;;;;;;;14.58;6.53;;;;;;;0.49;100.00;142394.34;1743869;81;21051;-54
2022/04/18 01:19:50;;;;;;;15.70;7.00;;;;;;;0.45;100.00;142384.38;1707523;82;21048;-53
2022/04/18 01:22:22;;;;;;;16.48;6.50;;;;;;;0.47;100.00;142388.13;1747429;82;21036;-53
2022/04/18 01:30:37;;;;;;;19.40;8.03;;;;;;;0.56;100.00;142410.48;1747461;81;21028;-53
2022/04/18 01:33:05;;;;;;;14.40;6.47;;;;;;;0.54;100.00;142406.78;1747483;81;21047;-53
2022/04/18 01:35:36;;;;;;;13.43;6.37;;;;;;;0.52;100.00;142401.80;1747456;81;21542;-53
2022/04/18 01:38:02;;;;;;;14.05;6.50;;;;;;;0.50;100.00;142396.81;1747696;82;21518;-53
2022/04/18 01:40:29;;;;;;;19.52;6.40;;;;;;;0.50;100.00;142396.81;1747765;81;21051;-54
2022/04/18 01:42:56;;;;;;;11.30;6.40;;;;;;;0.48;100.00;142391.83;1747464;81;21098;-54
2022/04/18 01:45:23;;;;;;;14.50;5.87;;;;;;;0.49;100.00;142394.34;1747613;81;21529;-53
2022/04/18 01:48:10;;;;;;;11.55;4.97;;;;;;;0.56;100.00;142410.48;1745354;81;21568;-54
2022/04/18 01:50:37;;;;;;;15.03;6.58;;;;;;;0.59;100.00;142419.22;1747498;82;21044;-53
2022/04/18 01:53:05;;;;;;;18.23;6.15;;;;;;;0.64;100.00;142430.42;1747741;81;21515;-54
2022/04/18 01:55:34;;;;;;;12.70;5.37;;;;;;;0.71;100.00;142446.56;1747443;81;21039;-52
2022/04/18 01:58:01;;;;;;;10.25;5.50;;;;;;;0.75;100.00;142456.53;1747467;81;21008;-52
2022/04/18 02:00:28;;;;;;;11.93;5.22;;;;;;;0.76;100.00;142459.00;1747500;82;21611;-53
2022/04/18 02:02:54;;;;;;;11.50;4.75;;;;;;;0.79;100.00;142466.45;1747581;82;21036;-52
2022/04/18 02:05:22;;;;;;;8.83;4.60;;;;;;;0.81;99.86;142471.44;1747639;81;21090;-54
2022/04/18 02:07:48;;;;;;;10.65;4.50;;;;;;;0.82;99.91;142473.95;1747806;81;21525;-54
2022/04/18 02:10:15;;;;;;;9.65;4.28;;;;;;;0.87;99.77;142486.39;1747866;81;21180;-52
2022/04/18 02:12:44;;;;;;;9.73;5.17;;;;;;;0.88;99.55;142488.86;1747668;81;21000;-52
2022/04/18 02:15:10;;;;;;;9.93;4.78;;;;;;;0.89;99.39;142491.38;1747857;81;21039;-57
2022/04/18 02:17:46;;;;;;;11.50;5.05;;;;;;;0.87;99.26;142486.39;1746916;82;21079;-52
2022/04/18 02:20:13;;;;;;;12.40;5.03;;;;;;;0.86;99.40;142485.11;1748015;81;21087;-53
2022/04/18 02:22:41;;;;;;;9.20;5.30;;;;;;;0.91;99.27;142496.31;1747666;81;21076;-54
2022/04/18 02:25:09;;;;;;;8.85;4.20;;;;;;;0.90;99.06;142492.61;1747869;81;21502;-54
2022/04/18 02:27:36;;;;;;;8.50;4.47;;;;;;;0.82;98.78;142475.19;1747821;82;21059;-52
2022/04/18 02:30:05;;;;;;;8.15;4.15;;;;;;;0.71;98.91;142446.56;1748096;81;21059;-53
2022/04/18 02:32:49;;;;;;;10.78;4.85;;;;;;;0.69;99.20;142442.86;1747578;81;21039;-52
2022/04/18 02:35:20;;;;;;;8.55;4.58;;;;;;;0.73;99.31;142451.53;1750543;81;21039;-54
2022/04/18 02:37:49;;;;;;;6.67;3.90;;;;;;;0.78;99.34;142465.22;1753683;82;21117;-52
2022/04/18 02:40:18;;;;;;;6.80;4.08;;;;;;;0.85;99.14;142482.64;1753429;82;21503;-52
2022/04/18 02:42:46;;;;;;;6.97;4.28;;;;;;;0.80;98.95;142468.97;1753459;81;21059;-53
2022/04/18 02:45:19;;;;;;;6.85;3.90;;;;;;;0.83;99.12;142476.42;1753378;81;21012;-52
2022/04/18 02:48:00;;;;;;;7.15;4.03;;;;;;;0.89;99.09;142491.38;1753202;81;21000;-52
2022/04/18 02:50:27;;;;;;;7.17;3.85;;;;;;;0.87;98.79;142486.39;1753399;81;21008;-54
2022/04/18 02:52:55;;;;;;;6.85;4.65;;;;;;;0.88;98.75;142487.63;1753132;82;21051;-52
2022/04/18 02:55:25;;;;;;;7.40;3.87;;;;;;;0.90;98.75;142492.61;1751974;81;21063;-52
2022/04/18 02:57:53;;;;;;;7.62;4.12;;;;;;;0.94;98.74;142503.81;1753140;82;21012;-53
2022/04/18 03:00:20;;;;;;;6.30;3.62;;;;;;;0.98;98.66;142513.73;1753325;81;21040;-52
2022/04/18 03:02:47;;;;;;;6.92;3.00;;;;;;;0.96;98.28;142508.75;1753142;81;21039;-53
2022/04/18 03:05:13;;;;;;;7.65;4.03;;;;;;;0.91;98.18;142496.31;1724768;82;21001;-54
2022/04/18 03:07:41;;;;;;;5.85;3.40;;;;;;;0.81;98.19;142471.44;1753279;81;21035;-54
2022/04/18 03:10:10;;;;;;;8.43;3.52;;;;;;;0.70;98.35;142444.09;1725126;82;21040;-54
2022/04/18 03:12:39;;;;;;;6.00;3.62;;;;;;;0.55;98.66;142409.25;1753083;81;21012;-53
2022/04/18 03:15:08;;;;;;;5.42;3.20;;;;;;;0.47;99.22;142389.36;1753140;82;21046;-54
2022/04/18 03:17:34;;;;;;;6.33;3.45;;;;;;;0.43;99.41;142380.67;1753332;81;21031;-53
2022/04/18 03:20:05;;;;;;;8.10;4.37;;;;;;;0.42;99.65;142376.94;1753069;81;21028;-54
2022/04/18 03:22:33;;;;;;;6.30;3.58;;;;;;;0.42;99.79;142376.94;1753498;81;21028;-53
2022/04/18 03:25:05;;;;;;;7.33;3.80;;;;;;;0.48;99.95;142390.59;1753165;80;21032;-52
2022/04/18 03:27:35;;;;;;;6.90;4.17;;;;;;;0.51;99.84;142399.33;1753329;81;21000;-54
2022/04/18 03:30:05;;;;;;;6.17;3.80;;;;;;;0.57;99.90;142413.00;1753103;82;21127;-52
2022/04/18 03:32:34;;;;;;;8.98;3.65;;;;;;;0.56;99.72;142411.77;1752778;82;21020;-53
2022/04/18 03:35:01;;;;;;;8.03;4.25;;;;;;;0.57;99.75;142414.23;1725748;82;21521;-54
2022/04/18 03:40:13;;;;;;;8.43;4.35;;;;;;;0.60;99.66;142420.45;1753154;81;21043;-54
2022/04/18 03:42:40;;;;;;;8.73;3.67;;;;;;;0.54;99.61;142405.55;1753100;82;21224;-54
2022/04/18 03:45:08;;;;;;;7.95;4.12;;;;;;;0.52;99.81;142401.80;1751630;82;21055;-53
2022/04/18 03:47:35;;;;;;;7.42;4.25;;;;;;;0.58;99.92;142415.47;1753043;81;21039;-53
2022/04/18 03:50:05;;;;;;;5.97;4.17;;;;;;;0.56;99.78;142411.77;1753172;81;21075;-52
2022/04/18 03:52:35;;;;;;;9.33;4.95;;;;;;;0.53;99.88;142404.27;1753282;81;21015;-52
2022/04/18 03:55:02;;;;;;;7.80;4.17;;;;;;;0.57;99.92;142414.23;1753066;82;21088;-53
2022/04/18 03:57:32;;;;;;;8.30;4.37;;;;;;;0.57;99.80;142414.23;1752991;82;21051;-52
2022/04/18 04:00:01;;;;;;;7.37;3.67;;;;;;;0.61;99.97;142422.92;1752302;82;21200;-53
2022/04/18 04:02:27;;;;;;;9.65;4.17;;;;;;;0.72;100.00;142449.08;1753272;81;21525;-52
2022/04/18 04:04:55;;;;;;;7.28;4.22;;;;;;;0.77;99.58;142461.52;1753018;82;21036;-53
2022/04/18 04:07:23;;;;;;;6.80;4.50;;;;;;;0.78;99.58;142465.22;1753239;81;21564;-53
2022/04/18 04:09:53;;;;;;;5.50;3.72;;;;;;;0.86;99.49;142485.11;1751804;82;20992;-53
2022/04/18 04:12:25;;;;;;;7.62;4.53;;;;;;;0.94;99.33;142503.81;1752960;81;21552;-53
2022/04/18 04:14:55;;;;;;;6.65;4.22;;;;;;;0.99;98.85;142516.25;1740434;82;20992;-54
2022/04/18 04:17:23;;;;;;;5.90;3.45;;;;;;;0.98;98.57;142512.50;1753241;81;21016;-53
2022/04/18 04:19:51;;;;;;;6.90;3.40;;;;;;;0.95;98.47;142506.28;1753217;82;21050;-52
2022/04/18 04:22:20;;;;;;;8.48;4.03;;;;;;;0.88;98.42;142488.86;1751604;82;21051;-52
2022/04/18 04:24:49;;;;;;;6.05;4.15;;;;;;;0.82;98.42;142473.95;1752862;81;20996;-54
2022/04/18 04:27:17;;;;;;;7.80;3.45;;;;;;;0.74;98.56;142455.30;1753095;82;21540;-58
2022/04/18 04:29:44;;;;;;;6.42;3.83;;;;;;;0.74;98.81;142455.30;1753277;82;21082;-55
2022/04/18 04:32:12;;;;;;;6.72;3.60;;;;;;;0.76;98.80;142460.23;1752285;82;21079;-56
2022/04/18 04:34:42;;;;;;;6.20;4.00;;;;;;;0.76;98.85;142460.23;1725100;82;21076;-53
2022/04/18 04:37:28;;;;;;;5.60;3.25;;;;;;;0.77;98.85;142461.52;1753106;81;20997;-58
2022/04/18 04:39:56;;;;;;;6.47;3.92;;;;;;;0.77;98.85;142461.52;1741787;82;21099;-57
2022/04/18 04:42:25;;;;;;;7.47;4.33;;;;;;;0.80;98.94;142468.97;1723231;83;21067;-56
2022/04/18 04:44:52;;;;;;;5.90;3.85;;;;;;;0.82;98.78;142473.95;1723482;83;21071;-57
2022/04/18 04:47:23;;;;;;;7.37;3.75;;;;;;;0.87;98.77;142486.39;1723307;83;21020;-57
2022/04/18 04:49:52;;;;;;;8.05;4.03;;;;;;;0.93;98.72;142501.30;1729199;82;21035;-57
2022/04/18 04:52:24;;;;;;;7.97;4.30;;;;;;;1.01;98.61;142521.19;1734565;82;21067;-57
2022/04/18 04:54:51;;;;;;;7.47;3.83;;;;;;;1.08;98.36;142538.62;1741636;82;21027;-58
2022/04/18 04:57:20;;;;;;;6.75;4.03;;;;;;;1.10;97.99;142541.12;1752979;81;21577;-58
2022/04/18 04:59:48;;;;;;;8.93;4.92;;;;;;;1.02;97.77;142523.70;1757088;81;21034;-62
2022/04/18 05:02:15;;;;;;;6.72;3.80;;;;;;;0.99;97.93;142516.25;1761409;80;21031;-56
2022/04/18 05:04:42;;;;;;;7.00;4.20;;;;;;;1.00;97.76;142518.72;1758708;80;21551;-57
2022/04/18 05:07:10;;;;;;;7.70;4.15;;;;;;;0.99;97.80;142516.25;1775468;80;21054;-57
2022/04/18 05:09:56;;;;;;;6.35;3.65;;;;;;;1.01;97.73;142521.19;1761252;80;21034;-54
2022/04/18 05:12:28;;;;;;;6.95;4.17;;;;;;;1.06;97.65;142533.63;1761457;80;21508;-56
2022/04/18 05:14:54;;;;;;;6.05;4.03;;;;;;;1.12;97.68;142546.08;1761310;80;21074;-54
2022/04/18 05:17:23;;;;;;;8.15;4.80;;;;;;;1.13;97.38;142548.59;1733099;81;20999;-48
2022/04/18 05:19:56;;;;;;;7.50;3.80;;;;;;;1.13;97.86;142548.59;1759191;80;21581;-60
2022/04/18 05:22:26;;;;;;;8.85;4.35;;;;;;;1.22;97.74;142570.95;1726516;83;21449;-60
2022/04/18 05:24:55;;;;;;;8.58;4.58;;;;;;;1.23;97.43;142574.70;1734035;81;21086;-60
2022/04/18 05:27:23;;;;;;;6.95;4.67;;;;;;;1.37;97.39;142608.28;1725233;83;21036;-60
2022/04/18 05:29:51;;;;;;;10.28;5.22;;;;;;;1.45;96.71;142628.23;1734024;81;21034;-60
2022/04/18 05:32:17;;;;;;;7.12;4.10;;;;;;;1.47;96.30;142633.17;1726572;83;21047;-59
2022/04/18 05:34:46;;;;;;;7.92;4.17;;;;;;;1.46;95.92;142630.70;1733326;83;21496;-60
2022/04/18 05:37:26;;;;;;;7.12;4.72;;;;;;;1.49;95.61;142636.92;1731136;81;21035;-59
2022/04/18 05:39:57;;;;;;;7.50;4.85;;;;;;;1.47;95.47;142633.17;1710340;83;21059;-58
2022/04/18 05:42:25;;;;;;;7.92;4.83;;;;;;;1.57;95.66;142655.59;1683619;84;21153;-59
2022/04/18 05:44:55;;;;;;;9.20;5.55;;;;;;;1.63;95.28;142670.52;1695316;82;21114;-58
2022/04/18 05:47:21;;;;;;;9.18;5.53;;;;;;;1.66;95.10;142678.03;1716731;82;21754;-60
2022/04/18 05:49:48;;;;;;;7.78;4.85;;;;;;;1.75;94.95;142700.41;1721770;81;21006;-60
2022/04/18 05:52:15;;;;;;;7.97;5.12;;;;;;;1.82;94.44;142717.84;1716637;82;21011;-58
2022/04/18 05:54:44;;;;;;;10.50;5.55;;;;;;;1.82;94.12;142716.59;1723853;82;21048;-60
2022/04/18 05:57:11;;;;;;;10.35;5.25;;;;;;;1.91;94.37;142740.27;1741827;82;21026;-62
2022/04/18 05:59:40;;;;;;;11.22;5.42;;;;;;;2.04;93.88;142770.16;1736148;82;21043;-59
2022/04/18 06:02:12;;;;;;;8.43;5.35;;;;;;;2.10;92.87;142786.31;1703154;82;21055;-60
2022/04/18 06:04:42;;;;;;;11.20;5.58;;;;;;;2.13;92.54;142792.53;1717305;82;21062;-60
2022/04/18 06:07:18;;;;;;;8.90;5.47;;;;;;;2.15;92.21;142797.53;1722934;81;21473;-61
2022/04/18 06:09:46;;;;;;;11.65;5.30;;;;;;;2.13;91.96;142792.53;1724139;82;21059;-59
2022/04/18 06:12:22;;;;;;;8.08;4.70;;;;;;;2.18;91.46;142805.00;1723538;81;21011;-59
2022/04/18 06:14:51;;;;;;;10.00;4.37;;;;;;;2.16;90.83;142801.28;1724697;82;20978;-59
2022/04/18 06:17:20;;;;;;;8.73;5.15;;;;;;;2.14;90.64;142796.30;1728689;82;21051;-60
2022/04/18 06:19:46;;;;;;;8.98;5.45;;;;;;;2.23;90.53;142817.45;1709597;82;21521;-60
2022/04/18 06:22:13;;;;;;;9.15;5.40;;;;;;;2.34;90.19;142844.87;1708445;82;21051;-59
2022/04/18 06:24:42;;;;;;;9.55;5.28;;;;;;;2.41;89.71;142859.81;1704503;82;21023;-61
2022/04/18 06:27:13;;;;;;;8.80;5.15;;;;;;;2.44;89.50;142867.27;1681396;84;21063;-59
2022/04/18 06:29:40;;;;;;;11.50;5.78;;;;;;;2.38;89.14;142853.58;1681270;85;21529;-59
2022/04/18 06:32:09;;;;;;;9.78;5.78;;;;;;;2.36;89.26;142849.81;1681851;84;21505;-59
2022/04/18 06:34:36;;;;;;;10.15;5.53;;;;;;;2.35;89.21;142847.34;1710340;82;21055;-60
2022/04/18 06:37:08;;;;;;;8.15;5.33;;;;;;;2.44;89.45;142867.27;1737579;82;21560;-60
2022/04/18 06:39:43;;;;;;;9.53;5.05;;;;;;;2.55;89.21;142894.70;1745897;82;21084;-60
2022/04/18 06:42:17;;;;;;;11.10;5.75;;;;;;;2.63;88.59;142913.39;1735891;81;21005;-59
2022/04/18 06:44:46;;;;;;;9.53;5.00;;;;;;;2.60;87.65;142907.16;1745946;82;21541;-59
2022/04/18 06:47:13;;;;;;;12.98;5.37;;;;;;;2.56;87.66;142897.17;1744619;82;21083;-60
2022/04/18 06:49:57;;;;;;;8.68;4.80;;;;;;;2.52;87.62;142888.47;1665905;85;21059;-59
2022/04/18 06:52:46;;;;;;;13.40;5.80;;;;;;;2.59;88.03;142905.87;1709646;82;21047;-60
2022/04/18 06:58:21;;;;;;;7.45;4.87;;;;;;;2.92;87.22;142984.39;1741148;81;21015;-62
2022/04/18 07:00:48;;;;;;;10.68;5.90;;;;;;;3.03;86.98;143011.83;1711466;81;21010;-60
2022/04/18 07:03:15;;;;;;;10.82;5.40;;;;;;;3.19;86.59;143051.70;1757633;81;21002;-60
2022/04/18 07:05:42;;;;;;;9.18;5.53;;;;;;;3.27;85.58;143070.39;1745830;81;20984;-60
2022/04/18 07:08:09;;;;;;;8.25;4.72;;;;;;;3.29;84.82;143074.16;1752489;81;21059;-60
2022/04/18 07:10:36;;;;;;;11.28;4.85;;;;;;;3.30;84.86;143077.86;1748480;81;21069;-59
2022/04/18 07:13:03;;;;;;;8.00;4.67;;;;;;;3.32;84.39;143082.86;1749245;81;21118;-60
2022/04/18 07:15:32;;;;;;;7.42;4.78;;;;;;;3.29;83.67;143074.16;1762114;81;21978;-60
2022/04/18 07:18:01;;;;;;;8.10;5.00;;;;;;;3.18;83.86;143049.22;1752318;81;21033;-59
2022/04/18 07:20:31;;;;;;;12.47;5.08;;;;;;;3.24;83.80;143062.92;1756305;81;21059;-60
2022/04/18 07:22:59;;;;;;;8.25;4.83;;;;;;;3.31;83.71;143079.09;1743491;81;21051;-60
2022/04/18 07:25:29;;;;;;;11.30;4.90;;;;;;;3.38;83.40;143096.56;1736984;81;21074;-60
2022/04/18 07:28:06;;;;;;;8.23;4.67;;;;;;;3.47;83.38;143120.27;1743137;81;21121;-60
2022/04/18 07:30:34;;;;;;;8.68;4.95;;;;;;;3.59;82.36;143148.95;1755192;81;21095;-61
2022/04/18 07:33:02;;;;;;;9.68;4.90;;;;;;;3.52;81.92;143130.25;1739002;81;21102;-60
2022/04/18 07:35:29;;;;;;;8.28;5.20;;;;;;;3.53;81.85;143133.97;1792765;78;21101;-59
2022/04/18 07:40:48;;;;;;;8.08;4.90;;;;;;;3.41;82.04;143104.03;1791847;78;21066;-59
2022/04/18 07:43:17;;;;;;;7.55;4.97;;;;;;;3.51;82.21;143129.02;1790333;78;21109;-59
2022/04/18 07:45:44;;;;;;;8.45;5.83;;;;;;;3.72;82.05;143178.89;1792280;78;20960;-59
2022/04/18 07:48:11;;;;;;;9.00;5.78;;;;;;;3.87;81.21;143217.55;1807577;78;21018;-59
2022/04/18 07:53:28;;;;;;;8.65;5.65;;;;;;;4.18;79.96;143292.38;1800714;78;20996;-59
2022/04/18 07:55:55;;;;;;;9.00;5.33;;;;;;;4.33;79.48;143328.58;1798144;78;21055;-63
2022/04/18 07:58:22;;;;;;;9.15;5.20;;;;;;;4.44;78.81;143356.00;1793025;78;20982;-60
2022/04/18 08:00:49;;;;;;;10.72;5.60;;;;;;;4.60;78.55;143393.44;1803145;78;21145;-60
2022/04/18 08:03:17;;;;;;;9.13;5.47;;;;;;;4.88;77.91;143462.09;1785375;78;21071;-60
2022/04/18 08:05:50;;;;;;;8.78;5.20;;;;;;;5.14;76.65;143527.03;1812945;78;20984;-59
2022/04/18 08:08:19;;;;;;;7.25;4.70;;;;;;;5.15;75.61;143528.27;1784252;79;21120;-56
2022/04/18 08:10:46;;;;;;;8.58;5.30;;;;;;;5.03;73.90;143499.53;1782476;79;21492;-56
2022/04/18 08:13:15;;;;;;;9.33;4.85;;;;;;;4.90;74.11;143468.33;1735135;81;21569;-56
2022/04/18 08:15:47;;;;;;;9.10;5.60;;;;;;;4.93;73.91;143475.81;1734208;81;21585;-56
2022/04/18 08:18:23;;;;;;;7.25;4.85;;;;;;;4.95;73.81;143480.81;1759482;81;21137;-49
2022/04/18 08:20:53;;;;;;;;;;;;;;;5.03;73.91;143498.30;1805254;78;21454;-53
2022/04/18 08:23:20;;;;;;;8.53;5.12;;;;;;;5.22;73.39;143547.00;1783925;78;20163;-61
2022/04/18 08:26:07;;;;;;;8.80;5.15;;;;;;;5.35;72.44;143576.97;1798149;78;21018;-61
2022/04/18 08:28:36;;;;;;;8.28;5.37;;;;;;;5.54;71.97;143623.16;1798705;78;21082;-62
2022/04/18 08:31:02;;;;;;;7.33;4.78;;;;;;;5.64;71.22;143648.14;1791757;78;21035;-61
2022/04/18 08:33:35;;;;;;;7.03;4.55;;;;;;;5.57;70.28;143630.66;1793266;78;21542;-62
2022/04/18 08:36:04;;;;;;;7.50;4.17;;;;;;;5.45;69.80;143601.95;1819518;77;21575;-62
2022/04/18 08:38:31;;;;;;;8.78;3.98;;;;;;;5.29;70.07;143563.25;1794659;78;20976;-62
2022/04/18 08:41:09;;;;;;;6.00;3.52;;;;;;;5.14;69.83;143525.75;1787167;78;21031;-64
2022/04/18 08:43:35;;;;;;;8.05;4.92;;;;;;;4.95;68.74;143479.56;1796920;78;21170;-62
2022/04/18 08:46:05;;;;;;;6.97;4.40;;;;;;;4.70;69.54;143418.41;1798266;78;21034;-62
2022/04/18 08:54:07;;;;;;;5.53;3.52;;;;;;;4.49;71.32;143368.48;1760531;80;21555;-63
2022/04/18 08:56:35;;;;;;;4.58;3.10;;;;;;;4.48;71.54;143366.00;1775236;80;21563;-60
2022/04/18 08:59:02;;;;;;;6.10;3.50;;;;;;;4.44;71.54;143356.00;1738933;81;21043;-58
2022/04/18 09:01:29;;;;;;;5.05;3.30;;;;;;;4.43;71.33;143352.28;1795676;78;21007;-59
2022/04/18 09:03:55;;;;;;;5.50;3.40;;;;;;;4.45;71.14;143358.53;1806657;78;21442;-59
2022/04/18 09:06:25;;;;;;;5.75;3.42;;;;;;;4.46;71.06;143359.77;1798490;78;21126;-58
2022/04/18 09:08:57;;;;;;;7.30;3.40;;;;;;;4.51;70.97;143372.25;1802004;78;21053;-57
2022/04/18 09:11:33;;;;;;;6.22;3.37;;;;;;;4.48;70.68;143366.00;1799323;78;21126;-60
2022/04/18 09:14:18;;;;;;;7.12;4.17;;;;;;;4.46;70.72;143361.00;1808816;78;21070;-58
2022/04/18 09:16:51;;;;;;;7.05;2.80;;;;;;;4.41;70.90;143348.53;1800551;78;21074;-58
2022/04/18 09:19:37;;;;;;;5.75;3.52;;;;;;;4.40;71.17;143346.05;1746476;80;21202;-60
2022/04/18 09:22:05;;;;;;;5.90;3.27;;;;;;;4.47;71.48;143363.48;1763155;80;21073;-59
2022/04/18 09:24:39;;;;;;;5.87;3.98;;;;;;;4.49;71.50;143367.25;1769189;80;21053;-59
2022/04/18 09:27:27;;;;;;;5.62;3.27;;;;;;;4.43;71.40;143353.53;1763345;80;21063;-60
2022/04/18 09:30:09;;;;;;;5.87;3.77;;;;;;;4.42;71.59;143351.00;1759180;80;21066;-61
2022/04/18 09:32:41;;;;;;;5.75;3.72;;;;;;;4.44;71.74;143356.00;1750630;80;21211;-61
2022/04/18 09:35:09;;;;;;;6.05;3.95;;;;;;;4.52;71.87;143374.72;1755352;80;21070;-60
2022/04/18 09:37:39;;;;;;;5.87;3.77;;;;;;;4.57;72.04;143387.20;1748366;80;21068;-61
2022/04/18 09:40:08;;;;;;;6.95;3.85;;;;;;;4.60;71.95;143394.67;1765261;80;21622;-63
2022/04/18 09:42:34;;;;;;;7.40;4.22;;;;;;;4.65;71.59;143405.92;1761230;80;21020;-62
2022/04/18 09:45:03;;;;;;;7.17;4.25;;;;;;;4.66;71.68;143408.44;1764259;80;21418;-60
2022/04/18 09:47:35;;;;;;;8.33;4.83;;;;;;;4.68;71.67;143414.69;1768890;80;21065;-61
2022/04/18 09:53:24;;;;;;;9.25;4.80;;;;;;;4.74;71.44;143429.64;1744574;80;21085;-59
2022/04/18 09:55:55;;;;;;;7.65;4.75;;;;;;;4.97;71.16;143485.81;1766350;80;21006;-57
2022/04/18 09:58:22;;;;;;;11.22;4.90;;;;;;;5.04;70.90;143500.78;1745297;80;21076;-60
2022/04/18 10:00:50;;;;;;;7.83;4.03;;;;;;;4.95;70.38;143480.81;1760783;80;21051;-59
2022/04/18 10:03:19;;;;;;;7.45;4.03;;;;;;;4.95;70.36;143480.81;1758619;80;21489;-59
2022/04/18 10:05:48;;;;;;;8.00;4.35;;;;;;;5.05;70.43;143504.53;1762240;80;21548;-59
2022/04/18 10:08:15;;;;;;;7.60;4.45;;;;;;;5.20;70.30;143542.00;1757349;79;21480;-57
2022/04/18 10:10:42;;;;;;;8.78;4.20;;;;;;;5.37;70.18;143583.22;1754169;80;21331;-60
2022/04/18 10:13:11;;;;;;;5.92;3.83;;;;;;;5.42;69.50;143595.70;1748887;80;21014;-59
2022/04/18 10:15:42;;;;;;;6.95;3.30;;;;;;;5.43;69.42;143598.19;1760093;80;21295;-59
2022/04/18 10:18:10;;;;;;;6.30;3.08;;;;;;;5.38;69.63;143584.45;1770895;80;21092;-58
2022/04/18 10:21:08;;;;;;;4.53;2.62;;;;;;;5.30;70.15;143565.72;1764300;79;21082;-57
2022/04/18 10:24:24;;;;;;;3.85;2.35;;;;;;;5.11;70.34;143519.50;1755841;80;21016;-60
2022/04/18 10:27:27;;;;;;;4.67;2.67;;;;;;;4.97;70.19;143485.81;1749209;80;21022;-58
2022/04/18 10:29:58;;;;;;;4.27;2.30;;;;;;;4.85;70.01;143455.84;1760365;80;21086;-58
2022/04/18 10:32:27;;;;;;;4.72;2.52;;;;;;;4.81;70.36;143445.87;1759271;80;21081;-59
2022/04/18 10:35:02;;;;;;;4.72;2.55;;;;;;;4.77;70.68;143435.88;1757798;80;21038;-60
2022/04/18 10:37:31;;;;;;;4.47;2.58;;;;;;;4.77;71.04;143435.88;1729895;81;21563;-59
2022/04/18 10:40:05;;;;;;;3.95;2.58;;;;;;;4.76;70.83;143433.41;1729705;81;21038;-59
2022/04/18 10:42:40;;;;;;;4.87;3.00;;;;;;;4.75;70.96;143430.87;1730068;81;20981;-64
2022/04/18 10:45:19;;;;;;;5.22;2.90;;;;;;;4.78;70.76;143438.36;1729829;81;21068;-62
2022/04/18 10:48:06;;;;;;;5.35;3.30;;;;;;;4.91;70.68;143470.84;1754725;81;20935;-58
2022/04/18 10:50:47;;;;;;;6.22;3.40;;;;;;;5.06;70.48;143507.02;1751656;81;21524;-57
2022/04/18 10:53:29;;;;;;;4.67;2.95;;;;;;;5.24;70.11;143550.77;1745426;82;21038;-57
2022/04/18 10:56:02;;;;;;;5.10;3.05;;;;;;;5.34;69.32;143575.73;1760020;81;21069;-59
2022/04/18 10:58:36;;;;;;;5.22;3.17;;;;;;;5.39;69.10;143588.22;1758054;80;21556;-61
2022/04/18 11:01:08;;;;;;;5.25;3.30;;;;;;;5.43;68.67;143598.19;1756138;82;20995;-60
2022/04/18 11:03:41;;;;;;;5.20;3.08;;;;;;;5.56;68.81;143628.17;1756609;82;21006;-60
2022/04/18 11:06:21;;;;;;;6.22;3.08;;;;;;;5.73;68.50;143669.41;1756614;82;21054;-59
2022/04/18 11:09:01;;;;;;;5.22;3.25;;;;;;;5.84;67.75;143696.88;1756170;82;21031;-61
2022/04/18 11:11:39;;;;;;;;;;;;;;;5.90;66.83;143711.84;1752768;81;21055;-62
2022/04/18 11:14:19;;;;;;;6.00;3.77;;;;;;;5.90;66.06;143710.59;1750184;81;20102;-61
2022/04/18 11:16:50;;;;;;;;;;;;;;;5.81;66.48;143690.62;1757404;80;21521;-61
2022/04/18 11:19:24;;;;;;;6.85;3.72;;;;;;;5.80;66.38;143686.86;1755708;81;20119;-60
2022/04/18 11:22:12;;;;;;;7.12;3.95;;;;;;;5.76;66.25;143678.12;1786345;80;21030;-60
2022/04/18 11:24:52;;;;;;;12.20;5.37;;;;;;;5.64;66.69;143648.14;1789974;80;21015;-61
2022/04/18 11:27:23;;;;;;;12.40;5.67;;;;;;;5.52;66.70;143619.44;1774366;80;20986;-60
2022/04/18 11:30:01;;;;;;;11.70;5.58;;;;;;;5.41;67.28;143591.94;1754676;82;21519;-61
2022/04/18 11:32:32;;;;;;;12.13;6.03;;;;;;;5.39;67.64;143588.22;1742225;82;21082;-61
2022/04/18 11:35:02;;;;;;;10.40;5.00;;;;;;;5.41;67.79;143593.19;1725124;83;21011;-59
2022/04/18 11:37:35;;;;;;;10.08;5.40;;;;;;;5.46;67.95;143603.19;1726661;81;21039;-60
2022/04/18 11:40:09;;;;;;;10.30;4.60;;;;;;;5.50;67.59;143613.20;1724877;83;21385;-59
2022/04/18 11:42:37;;;;;;;9.28;4.25;;;;;;;5.47;67.41;143605.67;1724955;83;21023;-60
2022/04/18 11:45:08;;;;;;;6.95;4.10;;;;;;;5.50;67.38;143614.44;1725030;82;21015;-58
2022/04/18 11:47:44;;;;;;;11.30;3.90;;;;;;;5.52;67.27;143618.16;1726255;82;21102;-58
2022/04/18 11:50:11;;;;;;;8.48;4.17;;;;;;;5.74;67.04;143673.13;1756522;82;21003;-60
2022/04/18 11:52:41;;;;;;;6.92;4.28;;;;;;;5.98;66.26;143731.92;1756241;82;21031;-59
2022/04/18 11:55:13;;;;;;;10.43;4.33;;;;;;;6.07;65.69;143754.38;1756456;82;21548;-60
2022/04/18 11:57:46;;;;;;;;;;;;;;;6.24;65.42;143794.41;1759060;82;21449;-58
2022/04/18 12:08:37;;;;;;;8.18;4.05;;;;;;;6.73;63.21;143915.63;1751714;82;21079;-60
2022/04/18 12:11:05;;;;;;;5.85;3.45;;;;;;;6.59;62.67;143880.66;1749864;82;21016;-58
2022/04/18 12:13:32;;;;;;;5.87;3.10;;;;;;;6.42;62.79;143838.14;1750276;82;21023;-58
2022/04/18 12:16:00;;;;;;;7.42;3.52;;;;;;;6.22;62.91;143790.63;1750198;82;20996;-58
2022/04/18 12:18:27;;;;;;;5.50;3.20;;;;;;;6.07;63.09;143753.14;1759137;80;21053;-57
2022/04/18 12:20:55;;;;;;;5.67;3.58;;;;;;;6.00;63.45;143735.64;1761196;81;21065;-64